createdAt,value
2024-02-02T00:03:08.753Z,4.63
2024-02-02T00:07:10.720Z,4.30
2024-02-02T00:11:13.143Z,4.20
2024-02-02T00:15:14.959Z,3.33
2024-02-02T00:20:06.638Z,5.05
2024-02-02T00:24:08.698Z,5.00
2024-02-02T00:28:10.531Z,3.95
2024-02-02T00:32:16.015Z,3.97
2024-02-02T00:36:17.939Z,3.58
2024-02-02T00:40:21.035Z,3.30
2024-02-02T00:44:22.983Z,2.95
2024-02-02T00:48:24.898Z,3.60
2024-02-02T00:52:26.816Z,3.65
2024-02-02T00:56:28.687Z,3.20
2024-02-02T01:00:30.750Z,3.90
2024-02-02T01:04:32.649Z,3.33
2024-02-02T01:08:34.476Z,2.70
2024-02-02T01:12:36.618Z,3.25
2024-02-02T01:16:38.466Z,2.92
2024-02-02T01:20:40.294Z,2.72
2024-02-02T01:24:42.100Z,3.00
2024-02-02T01:28:43.906Z,3.10
2024-02-02T01:32:45.777Z,3.30
2024-02-02T01:36:47.488Z,3.00
2024-02-02T01:40:49.501Z,2.97
2024-02-02T01:44:51.688Z,3.17
2024-02-02T01:48:53.761Z,3.65
2024-02-02T01:53:01.780Z,3.53
2024-02-02T02:02:13.913Z,4.40
2024-02-02T02:06:15.784Z,3.60
2024-02-02T02:10:19.091Z,4.25
2024-02-02T02:14:21.043Z,4.70
2024-02-02T02:18:22.993Z,4.28
2024-02-02T02:22:24.821Z,3.55
2024-02-02T02:26:29.617Z,3.42
2024-02-02T02:30:31.459Z,5.68
2024-02-02T02:34:33.459Z,4.43
2024-02-02T02:38:36.343Z,4.20
2024-02-02T02:42:38.171Z,4.38
2024-02-02T02:46:40.770Z,5.40
2024-02-02T02:50:42.582Z,4.35
2024-02-02T02:54:44.501Z,4.70
2024-02-02T02:58:46.211Z,4.20
2024-02-02T03:02:48.022Z,3.72
2024-02-02T03:06:49.944Z,3.97
2024-02-02T03:10:51.740Z,3.08
2024-02-02T03:14:53.556Z,4.20
2024-02-02T03:18:55.546Z,3.92
2024-02-02T03:22:57.377Z,4.68
2024-02-02T03:26:59.097Z,4.20
2024-02-02T03:31:00.909Z,3.20
2024-02-02T03:35:02.752Z,3.55
2024-02-02T03:39:04.865Z,3.50
2024-02-02T03:43:06.677Z,3.53
2024-02-02T03:47:26.698Z,3.60
2024-02-02T03:51:28.513Z,3.17
2024-02-02T03:55:30.624Z,3.45
2024-02-02T03:59:32.716Z,3.17
2024-02-02T04:03:35.007Z,3.22
2024-02-02T04:07:37.155Z,3.00
2024-02-02T04:11:38.969Z,3.40
2024-02-02T04:15:41.202Z,3.38
2024-02-02T04:19:43.214Z,3.35
2024-02-02T04:23:44.997Z,3.25
2024-02-02T04:27:47.109Z,3.53
2024-02-02T04:31:48.848Z,3.25
2024-02-02T04:35:50.694Z,3.20
2024-02-02T04:39:52.490Z,3.35
2024-02-02T04:43:54.292Z,3.00
2024-02-02T04:47:56.395Z,3.33
2024-02-02T04:51:58.234Z,2.83
2024-02-02T04:56:00.293Z,3.08
2024-02-02T05:00:02.832Z,2.72
2024-02-02T05:04:05.040Z,3.35
2024-02-02T05:08:07.195Z,2.60
2024-02-02T05:12:09.109Z,2.85
2024-02-02T05:16:14.378Z,2.80
2024-02-02T05:20:17.344Z,2.35
2024-02-02T05:24:33.013Z,2.30
2024-02-02T05:28:41.567Z,2.35
2024-02-02T05:32:43.528Z,3.28
2024-02-02T05:36:46.119Z,2.85
2024-02-02T05:40:47.911Z,2.40
2024-02-02T05:44:49.947Z,2.53
2024-02-02T05:54:13.461Z,3.08
2024-02-02T05:58:15.251Z,3.10
2024-02-02T06:02:17.074Z,2.80
2024-02-02T06:06:19.056Z,3.35
2024-02-02T06:10:20.844Z,3.58
2024-02-02T06:14:26.437Z,2.78
2024-02-02T06:18:28.375Z,3.15
2024-02-02T06:22:30.325Z,3.40
2024-02-02T06:26:32.222Z,4.10
2024-02-02T06:30:34.194Z,2.80
2024-02-02T06:34:37.284Z,3.45
2024-02-02T06:38:39.122Z,3.20
2024-02-02T06:42:41.018Z,2.88
2024-02-02T06:46:42.753Z,3.83
2024-02-02T06:50:45.653Z,2.88
2024-02-02T06:54:47.567Z,3.10
2024-02-02T06:58:50.563Z,3.70
2024-02-02T07:02:52.334Z,3.35
2024-02-02T07:06:54.222Z,3.92
2024-02-02T07:11:14.352Z,3.70
2024-02-02T07:15:19.008Z,3.90
2024-02-02T07:19:38.950Z,3.90
2024-02-02T07:23:42.466Z,4.18
2024-02-02T07:27:57.559Z,3.58
2024-02-02T07:32:02.776Z,3.22
2024-02-02T07:36:06.098Z,4.18
2024-02-02T07:40:59.384Z,4.07
2024-02-02T07:45:01.191Z,3.90
2024-02-02T07:49:04.917Z,3.63
2024-02-02T07:53:06.693Z,3.47
2024-02-02T07:57:08.437Z,4.70
2024-02-02T08:01:11.529Z,4.03
2024-02-02T08:05:13.601Z,4.03
2024-02-02T08:09:15.508Z,3.78
2024-02-02T08:13:17.766Z,3.63
2024-02-02T08:17:19.716Z,3.67
2024-02-02T08:21:22.345Z,4.28
2024-02-02T08:25:24.167Z,3.95
2024-02-02T08:29:26.014Z,3.85
2024-02-02T08:33:27.904Z,3.50
2024-02-02T08:37:30.049Z,4.47
2024-02-02T08:41:32.054Z,3.95
2024-02-02T08:45:43.565Z,3.55
2024-02-02T08:49:59.903Z,3.72
2024-02-02T08:54:16.790Z,4.00
2024-02-02T08:58:28.719Z,4.00
2024-02-02T09:02:36.555Z,4.65
2024-02-02T09:06:41.291Z,6.07
2024-02-02T09:10:46.048Z,4.63
2024-02-02T09:14:47.836Z,4.35
2024-02-02T09:18:57.055Z,4.45
2024-02-02T09:23:00.362Z,4.53
2024-02-02T09:27:03.020Z,4.57
2024-02-02T09:31:07.798Z,6.05
2024-02-02T09:35:29.495Z,4.65
2024-02-02T09:39:51.611Z,4.60
2024-02-02T09:44:10.972Z,5.60
2024-02-02T09:48:24.787Z,6.07
2024-02-02T09:52:39.480Z,6.18
2024-02-02T09:56:41.219Z,5.70
2024-02-02T10:00:43.148Z,6.00
2024-02-02T10:05:23.543Z,5.07
2024-02-02T10:09:52.973Z,5.00
2024-02-02T10:14:00.534Z,6.20
2024-02-02T10:18:27.098Z,6.10
2024-02-02T10:22:51.605Z,6.50
2024-02-02T10:27:15.830Z,6.13
2024-02-02T10:31:39.754Z,6.25
2024-02-02T10:36:05.747Z,5.95
2024-02-02T10:40:12.081Z,6.45
2024-02-02T10:44:35.772Z,7.28
2024-02-02T10:48:41.015Z,7.25
2024-02-02T10:52:55.058Z,7.47
2024-02-02T10:57:19.001Z,8.07
2024-02-02T11:01:32.858Z,7.95
2024-02-02T11:05:56.795Z,7.38
2024-02-02T11:10:06.417Z,8.13
2024-02-02T11:14:16.493Z,8.95
2024-02-02T11:18:42.571Z,7.93
2024-02-02T11:22:55.654Z,9.57
2024-02-02T11:27:16.444Z,8.77
2024-02-02T11:31:41.757Z,9.38
2024-02-02T11:36:10.081Z,8.80
2024-02-02T11:40:13.330Z,7.75
2024-02-02T11:44:16.544Z,7.95
2024-02-02T11:48:40.318Z,9.02
2024-02-02T11:52:43.498Z,9.45
2024-02-02T11:56:49.658Z,9.52
2024-02-02T12:01:13.570Z,8.70
2024-02-02T12:05:21.310Z,8.95
2024-02-02T12:09:33.232Z,8.10
2024-02-02T12:13:38.122Z,8.30
2024-02-02T12:17:40.092Z,8.65
2024-02-02T12:21:41.866Z,8.60
2024-02-02T12:25:43.673Z,7.30
2024-02-02T12:29:45.843Z,6.22
2024-02-02T12:33:47.869Z,6.47
2024-02-02T12:37:51.794Z,6.22
2024-02-02T12:41:56.929Z,4.95
2024-02-02T12:45:58.792Z,6.05
2024-02-02T12:50:01.456Z,5.03
2024-02-02T12:54:03.966Z,5.00
2024-02-02T12:58:06.587Z,3.92
2024-02-02T13:02:08.625Z,4.60
2024-02-02T13:06:12.129Z,3.88
2024-02-02T13:10:14.026Z,3.80
2024-02-02T13:14:30.229Z,4.18
2024-02-02T13:18:37.084Z,4.28
2024-02-02T13:22:39.123Z,4.20
2024-02-02T13:26:42.559Z,4.20
2024-02-02T13:31:05.857Z,3.97
2024-02-02T13:35:11.636Z,3.47
2024-02-02T13:39:20.190Z,3.70
2024-02-02T13:43:22.889Z,3.70
2024-02-02T13:47:25.523Z,3.28
2024-02-02T13:51:29.744Z,3.58
2024-02-02T13:55:32.600Z,4.10
2024-02-02T13:59:34.672Z,3.80
2024-02-02T14:03:36.645Z,4.03
2024-02-02T14:07:39.293Z,3.65
2024-02-02T14:11:41.267Z,3.65
2024-02-02T14:15:43.281Z,4.15
2024-02-02T14:19:45.300Z,4.82
2024-02-02T14:23:47.084Z,3.90
2024-02-02T14:27:49.017Z,5.32
2024-02-02T14:31:59.098Z,4.25
2024-02-02T14:36:02.865Z,4.47
2024-02-02T14:40:05.339Z,4.40
2024-02-02T14:44:07.151Z,4.03
2024-02-02T14:48:09.218Z,4.43
2024-02-02T14:52:11.080Z,4.65
2024-02-02T14:56:13.316Z,4.45
2024-02-02T15:00:30.788Z,5.15
2024-02-02T15:04:33.393Z,5.40
2024-02-02T15:08:35.750Z,5.43
2024-02-02T15:12:37.736Z,4.93
2024-02-02T15:16:39.668Z,4.70
2024-02-02T15:20:41.599Z,4.60
2024-02-02T15:24:43.460Z,5.15
2024-02-02T15:28:45.266Z,4.80
2024-02-02T15:32:47.254Z,5.38
2024-02-02T15:36:49.194Z,5.40
2024-02-02T15:40:51.179Z,4.80
2024-02-02T15:44:54.113Z,5.10
2024-02-02T15:48:56.263Z,5.00
2024-02-02T15:53:00.196Z,5.03
2024-02-02T15:57:03.665Z,5.05
2024-02-02T16:01:05.571Z,4.20
2024-02-02T16:05:07.639Z,5.32
2024-02-02T16:09:13.292Z,5.80
2024-02-02T16:13:15.377Z,5.85
2024-02-02T16:17:17.176Z,5.47
2024-02-02T16:21:19.314Z,6.18
2024-02-02T16:25:22.206Z,6.35
2024-02-02T16:29:23.989Z,5.55
2024-02-02T16:33:25.913Z,6.25
2024-02-02T16:37:27.762Z,5.88
2024-02-02T16:41:29.611Z,4.80
2024-02-02T16:45:31.400Z,4.93
2024-02-02T16:49:33.449Z,5.45
2024-02-02T16:53:35.331Z,5.05
2024-02-02T16:57:39.546Z,5.78
2024-02-02T17:01:41.791Z,5.25
2024-02-02T17:05:43.586Z,4.95
2024-02-02T17:09:46.243Z,5.28
2024-02-02T17:13:48.657Z,4.78
2024-02-02T17:17:50.625Z,5.95
2024-02-02T17:21:52.623Z,6.93
2024-02-02T17:25:54.442Z,5.88
2024-02-02T17:29:56.405Z,7.35
2024-02-02T17:33:58.318Z,5.85
2024-02-02T17:38:00.139Z,7.13
2024-02-02T17:42:01.941Z,5.93
2024-02-02T17:46:06.517Z,5.88
2024-02-02T17:50:09.428Z,6.75
2024-02-02T17:54:11.397Z,6.10
2024-02-02T17:58:13.230Z,6.57
2024-02-02T18:02:15.297Z,5.85
2024-02-02T18:06:17.239Z,6.78
2024-02-02T18:10:19.087Z,6.40
2024-02-02T18:14:24.157Z,6.80
2024-02-02T18:18:27.358Z,6.63
2024-02-02T18:22:29.357Z,6.75
2024-02-02T18:26:31.178Z,7.47
2024-02-02T18:30:33.029Z,6.88
2024-02-02T18:34:37.664Z,6.88
2024-02-02T18:38:41.672Z,7.35
2024-02-02T18:42:43.631Z,7.28
2024-02-02T18:46:45.509Z,8.13
2024-02-02T18:50:47.313Z,7.20
2024-02-02T18:54:49.120Z,8.07
2024-02-02T18:58:51.026Z,8.65
2024-02-02T19:02:52.904Z,8.23
2024-02-02T19:06:54.874Z,8.55
2024-02-02T19:10:57.034Z,7.47
2024-02-02T19:14:59.808Z,8.02
2024-02-02T19:19:01.934Z,7.40
2024-02-02T19:23:04.308Z,8.50
2024-02-02T19:27:06.388Z,10.20
2024-02-02T19:31:08.713Z,8.25
2024-02-02T19:35:24.121Z,9.52
2024-02-02T19:39:25.975Z,8.63
2024-02-02T19:43:27.766Z,8.50
2024-02-02T19:47:29.664Z,8.68
2024-02-02T19:51:31.892Z,9.70
2024-02-02T19:55:33.863Z,7.47
2024-02-02T19:59:36.391Z,8.60
2024-02-02T20:03:38.158Z,9.05
2024-02-02T20:07:40.490Z,7.32
2024-02-02T20:11:42.380Z,8.13
2024-02-02T20:15:44.345Z,8.25
2024-02-02T20:19:46.424Z,8.63
2024-02-02T20:23:52.263Z,8.05
2024-02-02T20:27:54.062Z,8.32
2024-02-02T20:31:56.440Z,9.02
2024-02-02T20:35:58.313Z,8.70
2024-02-02T20:40:00.340Z,7.05
2024-02-02T20:44:02.360Z,7.38
2024-02-02T20:48:04.578Z,8.35
2024-02-02T20:52:06.818Z,7.85
2024-02-02T20:56:08.708Z,8.30
2024-02-02T21:00:12.702Z,8.07
2024-02-02T21:04:15.145Z,7.93
2024-02-02T21:08:17.094Z,7.80
2024-02-02T21:12:18.980Z,6.85
2024-02-02T21:16:20.808Z,7.25
2024-02-02T21:20:23.382Z,8.55
2024-02-02T21:24:25.189Z,7.35
2024-02-02T21:28:26.970Z,8.40
2024-02-02T21:32:28.834Z,7.00
2024-02-02T21:36:30.594Z,8.57
2024-02-02T21:40:32.558Z,7.85
2024-02-02T21:44:36.848Z,8.60
2024-02-02T21:48:38.794Z,7.80
2024-02-02T21:52:41.069Z,8.75
2024-02-02T21:56:43.466Z,8.52
2024-02-02T22:00:47.083Z,10.05
2024-02-02T22:04:53.894Z,9.63
2024-02-02T22:08:55.940Z,10.20
2024-02-02T22:12:57.746Z,9.88
2024-02-02T22:16:59.496Z,11.60
2024-02-02T22:21:01.260Z,10.20
2024-02-02T22:25:03.825Z,10.70
2024-02-02T22:29:05.859Z,10.43
2024-02-02T22:33:07.907Z,9.07
2024-02-02T22:37:09.738Z,9.40
2024-02-02T22:41:32.153Z,8.98
2024-02-02T22:45:36.031Z,9.82
2024-02-02T22:49:37.947Z,9.35
2024-02-02T22:53:40.568Z,10.10
2024-02-02T22:57:42.391Z,9.18
2024-02-02T23:01:44.254Z,8.80
2024-02-02T23:05:46.687Z,8.82
2024-02-02T23:09:48.768Z,9.07
2024-02-02T23:13:51.254Z,9.68
2024-02-02T23:17:53.053Z,8.95
2024-02-02T23:21:55.093Z,8.40
2024-02-02T23:25:57.104Z,9.48
2024-02-02T23:29:58.847Z,9.68
2024-02-02T23:34:00.801Z,9.65
2024-02-02T23:38:02.709Z,8.65
2024-02-02T23:42:04.844Z,7.93
2024-02-02T23:46:07.020Z,7.50
2024-02-02T23:50:09.723Z,6.68
2024-02-02T23:54:12.262Z,8.07
2024-02-02T23:58:14.074Z,8.65
